Terminal Aerodrome Forecast
Issued by NWS Corpus Christi, TX

Home | Current Version | Previous Version | Text Only | Print | Product List | Glossary On
Versions: 1 2 3 4 5 6 7 8 9 10 11 12 13 14 15 16
000
FTUS44 KCRP 141100
TAFCRP
TAF
KCRP 141131Z 1412/1512 VRB04KT P6SM FEW017
     FM141400 18007KT P6SM SCT030
     FM141900 13015G22KT P6SM FEW040
     FM150200 17006KT P6SM FEW025=

USA.gov is the U.S. government's official web portal to all federal, state and local government web resources and services.